Time;durP1;ratioP1;P1;durP2;ratioP2;P2;SDS_P1;SDS_P2;PMS_P1;PMS_P2;Temp;Humidity;BMP_temperature;BMP_pressure;BME280_temperature;BME280_humidity;BME280_pressure;Samples;Min_cycle;Max_cycle;Signal;HPM_P1;HPM_P2
2023/07/08 00:02:11;;;;;;;5.60;5.00;;;;;;;;;;5031370;28;20708;-78
2023/07/08 00:04:38;;;;;;;5.03;4.53;;;;;;;;;;5030356;28;20285;-78
2023/07/08 00:07:12;;;;;;;5.67;5.17;;;;;;;;;;4994616;28;20215;-77
2023/07/08 00:09:39;;;;;;;6.07;5.30;;;;;;;;;;5028781;28;20689;-78
2023/07/08 00:12:10;;;;;;;5.27;4.63;;;;;;;;;;5010563;28;20211;-77
2023/07/08 00:14:37;;;;;;;5.63;5.13;;;;;;;;;;5029440;28;20202;-78
2023/07/08 00:17:06;;;;;;;7.40;5.37;;;;;;;;;;5031487;28;20292;-77
2023/07/08 00:19:33;;;;;;;5.63;5.03;;;;;;;;;;5031236;28;20198;-78
2023/07/08 00:22:01;;;;;;;5.53;5.03;;;;;;;;;;5031055;28;20214;-78
2023/07/08 00:24:29;;;;;;;6.80;5.67;;;;;;;;;;5013766;28;20618;-78
2023/07/08 00:26:56;;;;;;;8.57;4.50;;;;;;;;;;5029702;28;20211;-78
2023/07/08 00:29:23;;;;;;;8.57;5.57;;;;;;;;;;5013474;28;20210;-77
2023/07/08 00:31:50;;;;;;;5.90;5.03;;;;;;;;;;5030246;28;20195;-78
2023/07/08 00:34:18;;;;;;;7.83;5.73;;;;;;;;;;5013738;28;20214;-77
2023/07/08 00:36:44;;;;;;;5.37;4.63;;;;;;;;;;5011130;28;20628;-78
2023/07/08 00:39:15;;;;;;;5.00;4.50;;;;;;;;;;5030836;28;20198;-77
2023/07/08 00:41:45;;;;;;;6.47;4.77;;;;;;;;;;5030894;28;20272;-78
2023/07/08 00:44:13;;;;;;;6.67;5.07;;;;;;;;;;5026319;28;20237;-77
2023/07/08 00:46:52;;;;;;;5.27;4.87;;;;;;;;;;5027413;28;20210;-77
2023/07/08 00:49:28;;;;;;;5.63;5.07;;;;;;;;;;5030364;28;20206;-77
2023/07/08 00:51:57;;;;;;;5.30;4.73;;;;;;;;;;5031045;28;20202;-78
2023/07/08 00:54:24;;;;;;;6.63;4.80;;;;;;;;;;5029547;28;20681;-77
2023/07/08 00:56:55;;;;;;;5.00;4.50;;;;;;;;;;5029820;28;20256;-77
2023/07/08 00:59:28;;;;;;;4.63;3.93;;;;;;;;;;5030097;28;20643;-78
2023/07/08 01:01:55;;;;;;;6.20;4.23;;;;;;;;;;5029643;28;20716;-78
2023/07/08 01:04:26;;;;;;;4.80;4.30;;;;;;;;;;5030637;28;20198;-77
2023/07/08 01:06:58;;;;;;;6.87;4.70;;;;;;;;;;5030581;28;20210;-77
2023/07/08 01:09:26;;;;;;;6.23;4.60;;;;;;;;;;5031049;28;20195;-77
2023/07/08 01:11:56;;;;;;;4.67;4.03;;;;;;;;;;5030526;28;20211;-77
2023/07/08 01:14:24;;;;;;;5.17;4.70;;;;;;;;;;5029446;28;20209;-78
2023/07/08 01:16:52;;;;;;;5.53;4.90;;;;;;;;;;5030809;28;20721;-77
2023/07/08 01:19:32;;;;;;;5.10;4.60;;;;;;;;;;5025949;28;20227;-77
2023/07/08 01:22:04;;;;;;;5.67;4.70;;;;;;;;;;5023135;28;20222;-77
2023/07/08 01:24:33;;;;;;;4.40;3.87;;;;;;;;;;5030221;28;20199;-77
2023/07/08 01:27:01;;;;;;;4.77;4.37;;;;;;;;;;5030617;28;20202;-78
2023/07/08 01:29:28;;;;;;;5.27;4.60;;;;;;;;;;5030419;28;20285;-77
2023/07/08 01:31:56;;;;;;;5.30;4.80;;;;;;;;;;5029354;28;20217;-77
2023/07/08 01:34:24;;;;;;;6.00;5.03;;;;;;;;;;5025579;28;20269;-77
2023/07/08 01:36:53;;;;;;;5.00;4.50;;;;;;;;;;5024295;28;20215;-77
2023/07/08 01:39:23;;;;;;;6.70;5.43;;;;;;;;;;5030246;28;20203;-77
2023/07/08 01:41:51;;;;;;;5.83;5.33;;;;;;;;;;5016237;28;20256;-77
2023/07/08 01:44:29;;;;;;;6.10;4.33;;;;;;;;;;5033021;28;20724;-77
2023/07/08 01:46:57;;;;;;;5.50;4.80;;;;;;;;;;5033889;28;20237;-77
2023/07/08 01:49:25;;;;;;;8.23;4.70;;;;;;;;;;5033509;28;20210;-77
2023/07/08 01:51:52;;;;;;;6.10;4.83;;;;;;;;;;5032559;28;20203;-77
2023/07/08 01:54:19;;;;;;;6.97;5.57;;;;;;;;;;5016207;28;20257;-78
2023/07/08 01:56:51;;;;;;;5.53;5.03;;;;;;;;;;5033857;28;20677;-77
2023/07/08 01:59:18;;;;;;;5.87;5.30;;;;;;;;;;5013728;28;20214;-77
2023/07/08 02:01:47;;;;;;;5.10;4.60;;;;;;;;;;5030509;28;20199;-77
2023/07/08 02:04:14;;;;;;;5.47;4.97;;;;;;;;;;5020686;28;20264;-77
2023/07/08 02:06:42;;;;;;;5.43;4.93;;;;;;;;;;5021728;28;20219;-77
2023/07/08 02:09:09;;;;;;;7.43;4.87;;;;;;;;;;5033246;28;20249;-77
2023/07/08 02:11:36;;;;;;;6.43;4.93;;;;;;;;;;5033409;28;20705;-77
2023/07/08 02:14:04;;;;;;;6.00;5.40;;;;;;;;;;5031818;28;20203;-78
2023/07/08 02:16:31;;;;;;;6.13;5.40;;;;;;;;;;5032478;28;20288;-78
2023/07/08 02:18:58;;;;;;;7.90;4.93;;;;;;;;;;5033170;28;20257;-77
2023/07/08 02:21:26;;;;;;;9.03;5.17;;;;;;;;;;5032587;28;20216;-77
2023/07/08 02:23:53;;;;;;;5.83;5.03;;;;;;;;;;5012309;28;20873;-77
2023/07/08 02:26:20;;;;;;;5.07;4.43;;;;;;;;;;5028214;28;20239;-77
2023/07/08 02:28:47;;;;;;;6.50;4.60;;;;;;;;;;5014686;28;20208;-77
2023/07/08 02:31:16;;;;;;;8.57;5.03;;;;;;;;;;5033884;28;20309;-77
2023/07/08 02:33:43;;;;;;;5.37;4.87;;;;;;;;;;5015341;28;20210;-77
2023/07/08 02:36:11;;;;;;;5.40;4.63;;;;;;;;;;5032332;28;20199;-77
2023/07/08 02:38:38;;;;;;;7.23;4.97;;;;;;;;;;5032812;28;20287;-77
2023/07/08 02:41:05;;;;;;;4.87;4.40;;;;;;;;;;5032149;28;20743;-77
2023/07/08 02:43:32;;;;;;;4.80;4.40;;;;;;;;;;5032673;28;20285;-77
2023/07/08 02:45:59;;;;;;;5.27;4.83;;;;;;;;;;5033000;28;20253;-77
2023/07/08 02:48:27;;;;;;;7.93;6.37;;;;;;;;;;5031733;28;20198;-77
2023/07/08 02:51:00;;;;;;;6.00;5.57;;;;;;;;;;5031932;28;20214;-77
2023/07/08 02:53:27;;;;;;;6.23;5.63;;;;;;;;;;5015905;28;20325;-78
2023/07/08 02:55:55;;;;;;;5.97;5.53;;;;;;;;;;5010134;28;20214;-77
2023/07/08 02:58:22;;;;;;;8.43;6.00;;;;;;;;;;5022901;28;20833;-78
2023/07/08 03:00:52;;;;;;;7.33;6.60;;;;;;;;;;5031525;28;20211;-78
2023/07/08 03:03:19;;;;;;;6.30;5.70;;;;;;;;;;5032458;28;20233;-77
2023/07/08 03:05:57;;;;;;;6.27;5.77;;;;;;;;;;5032390;28;20205;-77
2023/07/08 03:08:23;;;;;;;5.40;4.90;;;;;;;;;;5032317;28;20256;-78
2023/07/08 03:10:56;;;;;;;5.20;4.67;;;;;;;;;;5032633;28;20210;-78
2023/07/08 03:13:23;;;;;;;4.20;3.73;;;;;;;;;;5031137;28;20210;-77
2023/07/08 03:15:51;;;;;;;4.77;4.23;;;;;;;;;;5030803;28;20284;-77
2023/07/08 03:18:18;;;;;;;6.27;3.07;;;;;;;;;;5031698;28;20249;-77
2023/07/08 03:20:46;;;;;;;5.83;3.83;;;;;;;;;;5032003;28;20202;-77
2023/07/08 03:23:14;;;;;;;8.97;3.30;;;;;;;;;;5031780;28;20226;-77
2023/07/08 03:25:42;;;;;;;5.87;3.33;;;;;;;;;;5032094;28;20203;-77
2023/07/08 03:28:13;;;;;;;3.70;3.40;;;;;;;;;;5031832;28;20210;-77
2023/07/08 03:30:41;;;;;;;3.43;3.13;;;;;;;;;;5032464;28;20288;-77
2023/07/08 03:33:08;;;;;;;4.13;3.60;;;;;;;;;;5031044;28;20685;-77
2023/07/08 03:35:35;;;;;;;4.57;3.47;;;;;;;;;;5032005;28;20260;-78
2023/07/08 03:38:03;;;;;;;3.87;3.57;;;;;;;;;;5031498;28;20688;-78
2023/07/08 03:40:33;;;;;;;4.83;3.90;;;;;;;;;;5032391;28;20290;-77
2023/07/08 03:43:00;;;;;;;4.30;3.90;;;;;;;;;;5030827;28;20230;-77
2023/07/08 03:45:28;;;;;;;4.87;4.10;;;;;;;;;;5032091;28;20198;-78
2023/07/08 03:47:55;;;;;;;3.80;3.50;;;;;;;;;;5030213;28;20211;-77
2023/07/08 03:50:25;;;;;;;4.60;3.70;;;;;;;;;;5031879;28;20655;-77
2023/07/08 03:52:53;;;;;;;5.70;4.10;;;;;;;;;;5031792;28;20226;-77
2023/07/08 03:55:20;;;;;;;8.83;4.43;;;;;;;;;;5031960;28;20242;-77
2023/07/08 03:57:49;;;;;;;4.53;4.10;;;;;;;;;;5030129;28;20210;-77
2023/07/08 04:00:17;;;;;;;5.40;3.90;;;;;;;;;;5030610;28;20195;-77
2023/07/08 04:02:45;;;;;;;3.80;3.50;;;;;;;;;;5014113;28;20226;-77
2023/07/08 04:05:15;;;;;;;4.37;3.97;;;;;;;;;;5031567;28;20202;-77
2023/07/08 04:07:42;;;;;;;5.93;3.97;;;;;;;;;;5013424;28;20284;-77
2023/07/08 04:10:09;;;;;;;4.23;3.83;;;;;;;;;;5030278;28;20669;-77
2023/07/08 04:12:37;;;;;;;6.97;4.10;;;;;;;;;;5031113;28;20220;-77
2023/07/08 04:15:09;;;;;;;4.13;3.83;;;;;;;;;;5031226;28;20225;-77
2023/07/08 04:17:43;;;;;;;4.23;3.83;;;;;;;;;;5030207;28;20290;-78
2023/07/08 04:20:12;;;;;;;4.73;3.50;;;;;;;;;;5030094;28;20691;-77
2023/07/08 04:22:39;;;;;;;4.40;3.90;;;;;;;;;;5030089;28;20195;-77
2023/07/08 04:25:06;;;;;;;5.63;4.13;;;;;;;;;;5029983;28;20217;-77
2023/07/08 04:27:34;;;;;;;3.87;3.57;;;;;;;;;;5030989;28;20195;-79
2023/07/08 04:30:02;;;;;;;4.97;4.03;;;;;;;;;;5031390;28;20237;-77
2023/07/08 04:32:33;;;;;;;5.87;3.70;;;;;;;;;;5013497;28;20202;-77
2023/07/08 04:35:00;;;;;;;4.00;3.70;;;;;;;;;;5013867;28;20285;-77
2023/07/08 04:37:27;;;;;;;4.20;3.80;;;;;;;;;;5030990;28;20261;-77
2023/07/08 04:39:54;;;;;;;3.73;3.43;;;;;;;;;;5029763;28;20260;-78
2023/07/08 04:42:21;;;;;;;4.07;3.77;;;;;;;;;;5030730;28;20199;-77
2023/07/08 04:44:49;;;;;;;4.90;4.40;;;;;;;;;;5029422;28;20233;-77
2023/07/08 04:47:16;;;;;;;9.73;3.93;;;;;;;;;;5031167;28;20210;-77
2023/07/08 04:49:45;;;;;;;3.70;3.40;;;;;;;;;;5031250;28;20198;-77
2023/07/08 04:52:12;;;;;;;4.50;3.97;;;;;;;;;;5030671;28;20213;-78
2023/07/08 04:54:39;;;;;;;5.40;3.50;;;;;;;;;;5029415;28;20293;-77
2023/07/08 04:57:07;;;;;;;3.80;3.17;;;;;;;;;;5013238;28;20289;-77
2023/07/08 04:59:34;;;;;;;3.87;3.50;;;;;;;;;;5012028;28;20289;-78
2023/07/08 05:02:02;;;;;;;5.60;3.80;;;;;;;;;;5010203;28;20238;-77
2023/07/08 05:04:29;;;;;;;4.03;3.70;;;;;;;;;;5025852;28;20732;-77
2023/07/08 05:06:57;;;;;;;3.60;3.30;;;;;;;;;;5030610;28;20213;-77
2023/07/08 05:09:25;;;;;;;4.80;3.80;;;;;;;;;;5030634;28;20207;-77
2023/07/08 05:11:53;;;;;;;3.80;3.37;;;;;;;;;;5030483;28;20211;-77
2023/07/08 05:14:20;;;;;;;4.10;3.70;;;;;;;;;;5030538;28;20231;-77
2023/07/08 05:16:47;;;;;;;4.37;3.50;;;;;;;;;;5031344;28;20222;-78
2023/07/08 05:19:15;;;;;;;3.97;3.57;;;;;;;;;;5034570;28;20198;-77
2023/07/08 05:21:42;;;;;;;3.73;3.43;;;;;;;;;;5034643;28;20294;-77
2023/07/08 05:24:11;;;;;;;6.40;3.77;;;;;;;;;;5033962;28;20323;-77
2023/07/08 05:26:38;;;;;;;4.10;3.80;;;;;;;;;;5029815;28;20211;-77
2023/07/08 05:29:06;;;;;;;4.10;3.50;;;;;;;;;;5031999;28;20763;-77
2023/07/08 05:31:34;;;;;;;3.70;3.40;;;;;;;;;;4996412;28;20207;-77
2023/07/08 05:34:01;;;;;;;3.40;3.10;;;;;;;;;;5031021;28;20221;-77
2023/07/08 05:36:28;;;;;;;5.43;3.50;;;;;;;;;;5031176;28;20326;-78
2023/07/08 05:38:55;;;;;;;14.53;3.93;;;;;;;;;;5015511;28;20280;-77
2023/07/08 05:41:24;;;;;;;4.73;3.47;;;;;;;;;;5031245;28;20274;-77
2023/07/08 05:43:51;;;;;;;3.60;3.30;;;;;;;;;;5032889;28;20313;-77
2023/07/08 05:46:18;;;;;;;4.20;3.90;;;;;;;;;;5028713;28;20287;-77
2023/07/08 05:48:46;;;;;;;5.10;4.70;;;;;;;;;;5011781;28;20210;-77
2023/07/08 05:51:13;;;;;;;5.10;4.70;;;;;;;;;;5015997;28;20233;-78
2023/07/08 05:53:40;;;;;;;5.10;4.70;;;;;;;;;;5032761;28;20585;-77
2023/07/08 05:56:07;;;;;;;5.83;5.30;;;;;;;;;;5018769;28;20215;-76
2023/07/08 05:58:38;;;;;;;5.50;5.00;;;;;;;;;;5032386;28;20291;-75
2023/07/08 06:01:07;;;;;;;6.10;5.60;;;;;;;;;;5033144;28;20219;-76
2023/07/08 06:03:34;;;;;;;6.40;5.80;;;;;;;;;;5033751;28;20313;-78
2023/07/08 06:06:02;;;;;;;6.97;5.27;;;;;;;;;;5032394;28;20737;-76
2023/07/08 06:08:30;;;;;;;32.57;10.87;;;;;;;;;;5012518;28;20578;-77
2023/07/08 06:10:57;;;;;;;6.97;4.77;;;;;;;;;;5013853;28;20752;-77
2023/07/08 06:13:24;;;;;;;6.10;5.50;;;;;;;;;;5016011;28;20207;-77
2023/07/08 06:15:53;;;;;;;6.70;6.10;;;;;;;;;;5016073;28;20313;-77
2023/07/08 06:18:21;;;;;;;8.00;6.80;;;;;;;;;;5021637;28;20210;-77
2023/07/08 06:20:54;;;;;;;7.33;5.80;;;;;;;;;;5020877;28;20208;-78
2023/07/08 06:23:22;;;;;;;11.70;6.57;;;;;;;;;;5028886;28;20214;-77
2023/07/08 06:25:49;;;;;;;7.53;6.47;;;;;;;;;;5032324;28;20202;-78
2023/07/08 06:28:16;;;;;;;8.03;5.07;;;;;;;;;;5029395;28;20206;-77
2023/07/08 06:30:43;;;;;;;7.17;6.00;;;;;;;;;;5011336;28;20214;-77
2023/07/08 06:33:12;;;;;;;7.17;6.47;;;;;;;;;;5025439;28;20324;-78
2023/07/08 06:35:39;;;;;;;7.27;6.33;;;;;;;;;;5030643;28;20253;-79
2023/07/08 06:38:07;;;;;;;6.13;5.63;;;;;;;;;;5029702;28;20210;-77
2023/07/08 06:40:34;;;;;;;7.23;5.70;;;;;;;;;;5031787;28;20295;-77
2023/07/08 06:43:01;;;;;;;6.57;5.97;;;;;;;;;;5023064;28;20199;-77
2023/07/08 06:45:28;;;;;;;6.67;6.00;;;;;;;;;;5026604;28;20736;-78
2023/07/08 06:47:55;;;;;;;6.60;6.00;;;;;;;;;;5028359;28;20211;-77
2023/07/08 06:50:24;;;;;;;6.57;5.87;;;;;;;;;;5026398;28;20200;-77
2023/07/08 06:52:51;;;;;;;6.37;5.77;;;;;;;;;;5021678;28;20214;-77
2023/07/08 06:55:18;;;;;;;6.90;5.77;;;;;;;;;;5024878;28;20207;-77
2023/07/08 06:57:45;;;;;;;9.03;6.10;;;;;;;;;;5029274;28;20211;-77
2023/07/08 07:00:13;;;;;;;7.33;6.63;;;;;;;;;;5011579;28;20203;-78
2023/07/08 07:02:40;;;;;;;6.60;6.07;;;;;;;;;;5025006;28;20211;-77
2023/07/08 07:05:08;;;;;;;6.40;5.80;;;;;;;;;;5032564;28;20332;-77
2023/07/08 07:07:37;;;;;;;6.83;5.60;;;;;;;;;;5022866;28;20213;-77
2023/07/08 07:10:05;;;;;;;7.03;6.43;;;;;;;;;;5025497;28;20195;-78
2023/07/08 07:12:33;;;;;;;6.30;5.70;;;;;;;;;;5027335;28;20699;-78
2023/07/08 07:15:00;;;;;;;10.30;5.40;;;;;;;;;;5011828;28;20208;-78
2023/07/08 07:17:27;;;;;;;6.80;5.50;;;;;;;;;;5021116;28;20665;-77
2023/07/08 07:19:54;;;;;;;5.53;5.03;;;;;;;;;;5031827;28;20277;-78
2023/07/08 07:22:22;;;;;;;7.93;5.33;;;;;;;;;;5032097;28;20198;-77
2023/07/08 07:24:50;;;;;;;5.30;4.90;;;;;;;;;;5031079;28;20226;-78
2023/07/08 07:27:17;;;;;;;5.07;4.67;;;;;;;;;;5031720;28;20206;-78
2023/07/08 07:29:46;;;;;;;6.93;5.40;;;;;;;;;;5021564;28;20196;-78
2023/07/08 07:32:13;;;;;;;5.80;5.30;;;;;;;;;;5026834;28;20202;-78
2023/07/08 07:34:41;;;;;;;5.17;4.77;;;;;;;;;;5031361;28;20580;-78
2023/07/08 07:37:12;;;;;;;5.60;4.87;;;;;;;;;;5031938;28;20289;-78
2023/07/08 07:39:39;;;;;;;6.17;5.57;;;;;;;;;;5031544;28;20285;-77
2023/07/08 07:42:08;;;;;;;6.07;5.47;;;;;;;;;;5010804;28;20241;-78
2023/07/08 07:44:36;;;;;;;5.87;5.37;;;;;;;;;;5029458;28;20242;-78
2023/07/08 07:47:03;;;;;;;5.73;5.23;;;;;;;;;;5030357;28;20202;-78
2023/07/08 07:49:30;;;;;;;6.97;5.40;;;;;;;;;;5031942;28;20681;-78
2023/07/08 07:51:57;;;;;;;6.67;4.87;;;;;;;;;;5032084;28;20209;-78
2023/07/08 07:54:24;;;;;;;4.83;4.43;;;;;;;;;;5031935;28;20214;-78
2023/07/08 07:56:51;;;;;;;4.80;4.40;;;;;;;;;;5031717;28;20203;-78
2023/07/08 07:59:21;;;;;;;6.07;4.90;;;;;;;;;;5031490;28;20285;-78
2023/07/08 08:01:48;;;;;;;5.87;5.37;;;;;;;;;;5023414;28;20207;-80
2023/07/08 08:04:15;;;;;;;5.60;5.10;;;;;;;;;;5012009;28;20218;-80
2023/07/08 08:06:42;;;;;;;5.80;4.90;;;;;;;;;;5015229;28;20207;-80
2023/07/08 08:09:09;;;;;;;5.80;4.90;;;;;;;;;;5010628;28;20199;-79
2023/07/08 08:11:37;;;;;;;5.57;5.07;;;;;;;;;;5004825;28;20214;-79
2023/07/08 08:14:04;;;;;;;5.77;5.27;;;;;;;;;;4997819;28;20684;-79
2023/07/08 08:16:33;;;;;;;5.60;5.10;;;;;;;;;;5015927;28;20710;-78
2023/07/08 08:19:00;;;;;;;5.93;4.33;;;;;;;;;;5018647;28;20221;-80
2023/07/08 08:21:27;;;;;;;5.47;5.00;;;;;;;;;;4994171;28;20208;-79
2023/07/08 08:23:54;;;;;;;7.07;5.13;;;;;;;;;;5011284;28;20242;-79
2023/07/08 08:26:21;;;;;;;5.00;4.50;;;;;;;;;;5011243;28;20203;-79
2023/07/08 08:28:48;;;;;;;5.17;4.67;;;;;;;;;;5023048;28;20209;-80
2023/07/08 08:31:15;;;;;;;6.10;4.77;;;;;;;;;;4977644;28;20207;-80
2023/07/08 08:33:44;;;;;;;4.90;4.50;;;;;;;;;;5019190;28;20299;-79
2023/07/08 08:36:14;;;;;;;4.17;3.70;;;;;;;;;;5031120;28;20198;-80
2023/07/08 08:38:41;;;;;;;5.37;3.77;;;;;;;;;;5027078;28;20209;-80
2023/07/08 08:41:13;;;;;;;8.90;5.10;;;;;;;;;;5030597;28;20198;-78
2023/07/08 08:43:42;;;;;;;6.60;4.80;;;;;;;;;;5009777;28;20302;-79
2023/07/08 08:46:11;;;;;;;5.20;4.37;;;;;;;;;;5030143;28;20258;-78
2023/07/08 08:48:47;;;;;;;6.10;4.20;;;;;;;;;;5030936;28;20198;-79
2023/07/08 08:51:16;;;;;;;6.57;4.30;;;;;;;;;;5029287;28;20214;-79
2023/07/08 08:53:43;;;;;;;4.87;3.70;;;;;;;;;;5030070;28;20198;-78
2023/07/08 08:56:16;;;;;;;7.77;4.07;;;;;;;;;;5013368;28;20218;-79
2023/07/08 08:58:45;;;;;;;6.40;4.20;;;;;;;;;;5030457;28;20588;-79
2023/07/08 09:01:14;;;;;;;5.47;4.90;;;;;;;;;;5028618;28;20209;-78
2023/07/08 09:03:47;;;;;;;4.57;3.87;;;;;;;;;;5030503;28;20198;-78
2023/07/08 09:06:17;;;;;;;4.57;4.17;;;;;;;;;;5030628;28;20729;-79
2023/07/08 09:08:44;;;;;;;4.37;3.97;;;;;;;;;;5029121;28;20682;-79
2023/07/08 09:11:20;;;;;;;6.13;4.57;;;;;;;;;;5029187;28;20206;-79
2023/07/08 09:13:47;;;;;;;4.13;3.73;;;;;;;;;;5030005;28;20585;-78
2023/07/08 09:16:19;;;;;;;5.23;4.73;;;;;;;;;;5029731;28;20230;-79
2023/07/08 09:18:58;;;;;;;8.07;4.53;;;;;;;;;;5029735;28;20207;-79
2023/07/08 09:21:28;;;;;;;6.43;4.60;;;;;;;;;;5026159;28;20214;-79
2023/07/08 09:24:00;;;;;;;4.77;4.37;;;;;;;;;;5022323;28;20206;-79
2023/07/08 09:26:29;;;;;;;5.57;5.07;;;;;;;;;;5029455;28;20693;-79
2023/07/08 09:28:56;;;;;;;5.87;5.23;;;;;;;;;;5028507;28;20202;-79
2023/07/08 09:31:25;;;;;;;6.43;4.93;;;;;;;;;;5027781;28;20298;-79
2023/07/08 09:33:55;;;;;;;4.93;4.17;;;;;;;;;;5022908;28;20211;-79
2023/07/08 09:36:25;;;;;;;5.47;5.00;;;;;;;;;;5018780;28;20202;-79
2023/07/08 09:38:53;;;;;;;5.43;4.93;;;;;;;;;;5026364;28;20241;-79
2023/07/08 09:41:34;;;;;;;5.43;4.77;;;;;;;;;;5028433;28;20207;-79
2023/07/08 09:44:06;;;;;;;7.20;5.73;;;;;;;;;;5015440;28;20210;-79
2023/07/08 09:46:37;;;;;;;5.20;4.80;;;;;;;;;;5029971;28;20654;-79
2023/07/08 09:49:17;;;;;;;5.87;5.37;;;;;;;;;;5029235;28;20211;-79
2023/07/08 09:51:44;;;;;;;8.53;5.10;;;;;;;;;;5029084;28;20611;-79
2023/07/08 09:54:14;;;;;;;5.53;4.93;;;;;;;;;;5029064;28;20256;-79
2023/07/08 09:56:44;;;;;;;5.10;4.60;;;;;;;;;;5030137;28;20763;-79
2023/07/08 09:59:15;;;;;;;6.13;4.53;;;;;;;;;;5028873;28;20642;-79
2023/07/08 10:01:43;;;;;;;5.67;5.23;;;;;;;;;;5012793;28;20618;-79
2023/07/08 10:04:14;;;;;;;5.90;5.07;;;;;;;;;;5032766;28;20202;-79
2023/07/08 10:06:46;;;;;;;6.07;5.43;;;;;;;;;;5021094;28;20218;-79
2023/07/08 10:09:18;;;;;;;6.20;5.70;;;;;;;;;;5033471;28;20626;-79
2023/07/08 10:11:49;;;;;;;6.43;5.53;;;;;;;;;;5032827;28;20807;-80
2023/07/08 10:14:25;;;;;;;7.27;6.57;;;;;;;;;;5033509;28;20286;-79
2023/07/08 10:16:52;;;;;;;6.53;6.10;;;;;;;;;;5033596;28;20234;-79
2023/07/08 10:19:21;;;;;;;7.20;6.60;;;;;;;;;;5016265;28;20206;-81
2023/07/08 10:21:56;;;;;;;7.20;6.60;;;;;;;;;;5033060;28;20234;-80
2023/07/08 10:24:32;;;;;;;7.10;6.60;;;;;;;;;;5032080;28;20199;-80
2023/07/08 10:27:05;;;;;;;7.50;6.80;;;;;;;;;;5033502;28;20199;-81
2023/07/08 10:29:35;;;;;;;8.00;7.30;;;;;;;;;;5027688;28;20697;-80
2023/07/08 10:32:09;;;;;;;7.33;6.73;;;;;;;;;;5019762;28;20199;-80
2023/07/08 10:34:45;;;;;;;7.47;6.77;;;;;;;;;;5013418;28;20630;-80
2023/07/08 10:37:22;;;;;;;7.13;6.53;;;;;;;;;;5026759;28;20205;-80
2023/07/08 10:40:14;;;;;;;6.80;6.20;;;;;;;;;;5033712;28;20221;-80
2023/07/08 10:43:11;;;;;;;8.23;7.53;;;;;;;;;;5027571;28;20215;-79
2023/07/08 10:45:44;;;;;;;8.03;7.40;;;;;;;;;;5017994;28;20694;-79
2023/07/08 10:48:26;;;;;;;7.93;7.23;;;;;;;;;;5014598;28;20757;-79
2023/07/08 10:51:05;;;;;;;7.30;6.80;;;;;;;;;;5032103;28;20635;-79
2023/07/08 10:53:52;;;;;;;6.87;6.27;;;;;;;;;;5032029;28;20226;-79
2023/07/08 10:56:22;;;;;;;7.07;6.57;;;;;;;;;;5033469;28;20233;-79
2023/07/08 10:59:02;;;;;;;6.57;6.07;;;;;;;;;;5031058;28;20199;-79
2023/07/08 11:01:33;;;;;;;7.17;6.67;;;;;;;;;;5032899;28;20285;-79
2023/07/08 11:04:09;;;;;;;6.77;6.27;;;;;;;;;;5015331;28;20586;-78
2023/07/08 11:06:46;;;;;;;7.13;5.40;;;;;;;;;;5031237;28;20218;-79
2023/07/08 11:09:17;;;;;;;5.97;5.47;;;;;;;;;;5027832;28;20286;-79
2023/07/08 11:11:47;;;;;;;6.70;6.20;;;;;;;;;;5019570;28;20286;-78
2023/07/08 11:14:18;;;;;;;7.40;6.57;;;;;;;;;;5014505;28;20232;-79
2023/07/08 11:16:47;;;;;;;7.17;6.43;;;;;;;;;;5031044;28;20226;-78
2023/07/08 11:19:16;;;;;;;7.17;6.67;;;;;;;;;;5031042;28;20321;-79
2023/07/08 11:21:47;;;;;;;7.53;6.83;;;;;;;;;;5032168;28;20265;-80
2023/07/08 11:24:21;;;;;;;8.50;7.70;;;;;;;;;;5031281;28;20220;-80
2023/07/08 11:26:51;;;;;;;6.60;6.20;;;;;;;;;;5032644;28;20219;-77
2023/07/08 11:29:21;;;;;;;7.27;6.70;;;;;;;;;;5032169;28;20191;-78
2023/07/08 11:31:49;;;;;;;8.33;7.53;;;;;;;;;;5032197;28;20207;-79
2023/07/08 11:34:18;;;;;;;7.10;6.60;;;;;;;;;;5032274;28;20234;-79
2023/07/08 11:36:47;;;;;;;9.17;8.37;;;;;;;;;;5031904;28;20700;-78
2023/07/08 11:39:34;;;;;;;8.80;8.10;;;;;;;;;;5031836;28;20203;-79
2023/07/08 11:42:17;;;;;;;7.83;7.17;;;;;;;;;;5031908;28;20209;-79
2023/07/08 11:44:47;;;;;;;8.00;7.20;;;;;;;;;;5030494;28;20233;-79
2023/07/08 11:47:20;;;;;;;7.73;7.13;;;;;;;;;;5031889;28;20234;-80
2023/07/08 11:49:51;;;;;;;7.60;6.97;;;;;;;;;;5031644;28;20313;-80
2023/07/08 11:52:21;;;;;;;7.97;6.53;;;;;;;;;;5032419;28;20238;-80
2023/07/08 11:54:49;;;;;;;7.17;6.40;;;;;;;;;;5032275;28;20206;-80
2023/07/08 11:57:26;;;;;;;6.57;6.07;;;;;;;;;;5017859;28;20294;-80
2023/07/08 12:00:19;;;;;;;6.80;6.20;;;;;;;;;;5011578;28;20209;-80
2023/07/08 12:02:57;;;;;;;6.10;5.70;;;;;;;;;;5011445;28;20592;-80
2023/07/08 12:05:32;;;;;;;6.23;5.73;;;;;;;;;;5011716;28;20230;-82
2023/07/08 12:08:03;;;;;;;6.37;5.77;;;;;;;;;;5010085;28;20203;-81
2023/07/08 12:10:35;;;;;;;6.67;6.13;;;;;;;;;;5010492;28;20214;-80
2023/07/08 12:13:03;;;;;;;6.40;5.90;;;;;;;;;;5011719;28;20297;-80
2023/07/08 12:15:32;;;;;;;6.17;5.67;;;;;;;;;;5010344;28;20231;-80
2023/07/08 12:18:02;;;;;;;5.50;5.10;;;;;;;;;;5009646;28;20287;-80
2023/07/08 12:20:32;;;;;;;5.40;5.00;;;;;;;;;;5011138;28;20204;-81
2023/07/08 12:22:59;;;;;;;5.00;4.70;;;;;;;;;;5011295;28;20682;-84
2023/07/08 12:25:30;;;;;;;5.20;4.80;;;;;;;;;;5011748;28;20215;-84
2023/07/08 12:27:58;;;;;;;4.67;4.27;;;;;;;;;;5015258;28;20290;-84
2023/07/08 12:30:27;;;;;;;4.53;4.23;;;;;;;;;;5009935;28;20741;-82
2023/07/08 12:32:55;;;;;;;4.57;4.17;;;;;;;;;;5010123;28;20216;-80
2023/07/08 12:35:24;;;;;;;4.77;4.37;;;;;;;;;;5012035;28;20235;-81
2023/07/08 12:37:53;;;;;;;4.83;4.50;;;;;;;;;;5020634;28;20684;-81
2023/07/08 12:40:22;;;;;;;4.70;4.00;;;;;;;;;;5010996;28;20693;-81
2023/07/08 12:42:50;;;;;;;4.60;4.27;;;;;;;;;;5010139;28;20211;-82
2023/07/08 12:45:21;;;;;;;5.23;4.03;;;;;;;;;;5010223;28;20207;-81
2023/07/08 12:47:48;;;;;;;4.37;4.07;;;;;;;;;;5009387;28;20273;-82
2023/07/08 12:50:15;;;;;;;5.60;4.43;;;;;;;;;;5010233;28;20211;-82
2023/07/08 12:52:44;;;;;;;4.90;4.50;;;;;;;;;;5014496;28;20224;-81
2023/07/08 12:55:12;;;;;;;4.97;4.57;;;;;;;;;;5018748;28;20223;-82
2023/07/08 12:57:39;;;;;;;4.30;4.00;;;;;;;;;;5015979;28;20194;-81
2023/07/08 13:00:14;;;;;;;4.83;4.43;;;;;;;;;;5015234;28;20205;-81
2023/07/08 13:02:41;;;;;;;4.23;3.93;;;;;;;;;;4993651;28;20238;-81
2023/07/08 13:05:09;;;;;;;4.50;4.20;;;;;;;;;;5010827;28;20195;-81
2023/07/08 13:07:38;;;;;;;4.23;3.90;;;;;;;;;;4993687;28;20227;-81
2023/07/08 13:10:09;;;;;;;4.67;4.37;;;;;;;;;;5009358;28;20234;-81
2023/07/08 13:12:38;;;;;;;3.83;3.53;;;;;;;;;;5010759;28;20286;-82
2023/07/08 13:15:12;;;;;;;3.60;3.30;;;;;;;;;;5010745;28;20239;-81
2023/07/08 13:17:40;;;;;;;4.93;4.53;;;;;;;;;;5010647;28;20210;-81
2023/07/08 13:20:11;;;;;;;4.47;4.07;;;;;;;;;;5010469;28;20226;-80
2023/07/08 13:22:38;;;;;;;4.57;4.17;;;;;;;;;;5010650;28;20203;-81
2023/07/08 13:25:15;;;;;;;4.30;4.00;;;;;;;;;;5010961;28;20210;-81
2023/07/08 13:27:42;;;;;;;3.80;3.50;;;;;;;;;;5015792;28;20225;-81
2023/07/08 13:30:25;;;;;;;4.73;4.17;;;;;;;;;;5021769;28;20209;-80
2023/07/08 13:32:53;;;;;;;5.83;4.00;;;;;;;;;;5017506;28;20213;-79
2023/07/08 13:35:29;;;;;;;4.67;4.17;;;;;;;;;;5030175;28;20206;-80
2023/07/08 13:37:57;;;;;;;4.13;3.73;;;;;;;;;;5031305;28;20206;-81
2023/07/08 13:40:24;;;;;;;4.50;4.20;;;;;;;;;;5034056;28;20293;-80
2023/07/08 13:42:52;;;;;;;4.27;3.97;;;;;;;;;;5023400;28;20219;-80
2023/07/08 13:45:25;;;;;;;8.60;4.10;;;;;;;;;;5031989;28;20199;-80
2023/07/08 13:48:04;;;;;;;4.57;4.27;;;;;;;;;;5023419;28;20751;-80
2023/07/08 13:50:38;;;;;;;3.43;3.23;;;;;;;;;;5021461;28;20237;-79
2023/07/08 13:53:17;;;;;;;5.60;4.17;;;;;;;;;;5033014;28;20217;-80
2023/07/08 13:55:43;;;;;;;4.50;3.73;;;;;;;;;;5034486;28;20276;-81
2023/07/08 13:58:16;;;;;;;5.63;4.43;;;;;;;;;;5033086;28;20195;-81
2023/07/08 14:00:45;;;;;;;3.70;3.40;;;;;;;;;;5033179;28;20229;-81
2023/07/08 14:03:13;;;;;;;3.60;3.30;;;;;;;;;;5031441;28;20665;-81
2023/07/08 14:05:40;;;;;;;3.90;3.60;;;;;;;;;;5033226;28;20206;-80
2023/07/08 14:08:13;;;;;;;3.63;3.33;;;;;;;;;;5031444;28;20760;-80
2023/07/08 14:10:40;;;;;;;3.67;3.37;;;;;;;;;;5032980;28;20218;-80
2023/07/08 14:13:06;;;;;;;4.30;3.83;;;;;;;;;;5032200;28;20206;-80
2023/07/08 14:15:33;;;;;;;4.60;3.97;;;;;;;;;;5033066;28;20270;-80
2023/07/08 14:18:02;;;;;;;3.97;3.57;;;;;;;;;;5033725;28;20290;-80
2023/07/08 14:20:30;;;;;;;3.70;3.17;;;;;;;;;;5033826;28;20209;-80
2023/07/08 14:22:57;;;;;;;5.57;3.57;;;;;;;;;;5033351;28;20298;-80
2023/07/08 14:25:24;;;;;;;6.93;4.00;;;;;;;;;;5033265;28;20202;-82
2023/07/08 14:27:51;;;;;;;4.13;3.73;;;;;;;;;;5033282;28;20649;-84
2023/07/08 14:30:18;;;;;;;4.80;3.67;;;;;;;;;;5034140;28;20560;-83
2023/07/08 14:32:45;;;;;;;4.40;4.00;;;;;;;;;;5032808;28;20198;-82
2023/07/08 14:35:18;;;;;;;4.37;3.97;;;;;;;;;;5033249;28;20206;-82
2023/07/08 14:37:46;;;;;;;4.20;3.80;;;;;;;;;;5033454;28;20670;-82
2023/07/08 14:40:33;;;;;;;3.63;3.33;;;;;;;;;;5032504;28;20652;-81
2023/07/08 14:43:03;;;;;;;4.27;3.97;;;;;;;;;;5032738;28;20206;-81
2023/07/08 14:45:31;;;;;;;3.50;3.20;;;;;;;;;;5039319;28;20209;-80
2023/07/08 14:47:58;;;;;;;3.10;2.90;;;;;;;;;;5040796;28;20233;-81
2023/07/08 14:50:29;;;;;;;2.73;2.53;;;;;;;;;;5015603;28;20567;-81
2023/07/08 14:52:56;;;;;;;3.27;2.97;;;;;;;;;;5011979;28;20593;-80
2023/07/08 14:55:23;;;;;;;2.93;2.73;;;;;;;;;;5012098;28;20211;-80
2023/07/08 14:57:51;;;;;;;3.20;2.90;;;;;;;;;;5012889;28;20218;-80